Blackbird — WDJ4307 — position and weather

sailwx.info

Track history (hours):
 
Tides and Currents Weather Stations Pressure Air Temp Water Temp Dewpoint Dewpoint Depression Visibility Wind Speed Wind Dir Waves Ship Positions

Blackbird

Owner: PropSF, LLC, Alameda, CA. More information available from US FCC via Universal Licensing System and Coast Guard Vessel Documentation Center.

Last reported at 2017-Oct-18 23:30 UTC. Time now 2017-Oct-18 23:47 UTC.
Position N 38°04' W 122°13'.

Length 17 m; draft 1 m.

Type: Passenger vessel. MMSI: 367776390.

Date/timePositionNaut miles runAvg speedWind from/ knotsBaromVisibWave heightAir tempDewpointWater temp
2017-Oct-18 23:30N 38°04' W 122°13'1325.9
2017-Oct-18 23:01N 37°56' W 122°27'1019.1
2017-Oct-18 22:31N 37°47' W 122°23'714.4
2017-Oct-18 22:01N 37°40' W 122°23'1020.3
2017-Oct-18 21:31N 37°50' W 122°20'1 2.9
2017-Oct-18 21:00N 37°50' W 122°19'0 0.0
2017-Oct-18 20:30N 37°50' W 122°19'0 0.0
2017-Oct-18 17:46N 37°50' W 122°19'0 0.0
2017-Oct-18 17:30N 37°50' W 122°19'0 0.0
2017-Oct-18 17:00N 37°50' W 122°19'0 0.4
2017-Oct-18 16:31N 37°51' W 122°19'1122.0
2017-Oct-18 16:00N 37°40' W 122°22'816.6
2017-Oct-18 15:31N 37°48' W 122°21'3 6.1
2017-Oct-18 15:01N 37°51' W 122°21'3 2.8
2017-Oct-18 14:01N 37°49' W 122°23'815.8
2017-Oct-18 13:30N 37°55' W 122°28'1224.2
2017-Oct-18 13:01N 38°03' W 122°17'612.3
2017-Oct-18 12:31N 38°03' W 122°09'1121.0
2017-Oct-18 12:00N 38°01' W 122°23'1020.3
2017-Oct-18 11:31N 37°51' W 122°22'2 4.8
2017-Oct-18 11:00N 37°50' W 122°19'0 0.0
2017-Oct-18 02:33N 37°50' W 122°19'0 0.0
2017-Oct-18 02:30N 37°50' W 122°19'2 3.4
2017-Oct-18 02:01N 37°52' W 122°19'1223.7
2017-Oct-18 01:31N 37°40' W 122°22'1 1.5
2017-Oct-18 01:01N 37°40' W 122°22'1326.1
2017-Oct-18 00:31N 37°53' W 122°24'1223.7
2017-Oct-18 00:01N 38°03' W 122°17'2 4.1
2017-Oct-17 23:30N 38°04' W 122°14'1325.7
2017-Oct-17 23:01N 37°56' W 122°27'1019.4
2017-Oct-17 22:31N 37°47' W 122°23'713.9
2017-Oct-17 22:01N 37°40' W 122°23'713.6
2017-Oct-17 21:31N 37°47' W 122°21'4 1.1
2017-Oct-17 17:42N 37°50' W 122°19'0 0.0
2017-Oct-17 17:30N 37°50' W 122°19'0 0.0
2017-Oct-17 17:00N 37°50' W 122°19'1 2.5
2017-Oct-17 16:31N 37°50' W 122°20'1020.4
2017-Oct-17 16:00N 37°40' W 122°23'918.3
2017-Oct-17 15:31N 37°49' W 122°21'2 4.5
2017-Oct-17 15:01N 37°51' W 122°21'1122.6
2017-Oct-17 14:30N 37°40' W 122°23'917.8
2017-Oct-17 14:01N 37°49' W 122°23'815.5
2017-Oct-17 13:31N 37°55' W 122°28'1325.8
2017-Oct-17 13:00N 38°03' W 122°16'5 9.9
2017-Oct-17 12:30N 38°02' W 122°10'1121.6
2017-Oct-17 12:01N 38°01' W 122°23'1020.2
2017-Oct-17 11:31N 37°51' W 122°21'2 0.2
2017-Oct-17 02:39N 37°50' W 122°19'0 0.0
2017-Oct-17 02:30N 37°50' W 122°19'2 3.4
2017-Oct-17 02:01N 37°52' W 122°19'1223.7
2017-Oct-17 01:31N 37°40' W 122°22'1 1.8
2017-Oct-17 01:00N 37°41' W 122°21'1427.8
2017-Oct-17 00:31N 37°55' W 122°25'1325.8
2017-Oct-17 00:00N 38°04' W 122°13'2 4.5
2017-Oct-16 23:29N 38°03' W 122°16'1226.0
2017-Oct-16 23:01N 37°55' W 122°28'1019.1
2017-Oct-16 22:30N 37°47' W 122°23'713.5
2017-Oct-16 22:00N 37°40' W 122°23'713.8
2017-Oct-16 21:31N 37°47' W 122°21'4 8.5
2017-Oct-16 21:00N 37°50' W 122°19'0 0.0
2017-Oct-16 20:30N 37°50' W 122°19'0 0.0
2017-Oct-16 18:22N 37°50' W 122°19'0 0.0
2017-Oct-16 18:00N 37°50' W 122°19'0 0.0
2017-Oct-16 17:31N 37°50' W 122°19'0 0.0
2017-Oct-16 17:00N 37°50' W 122°19'3 6.3
2017-Oct-16 16:31N 37°48' W 122°22'816.8
2017-Oct-16 16:00N 37°40' W 122°23'1020.0
2017-Oct-16 15:31N 37°50' W 122°22'1 2.1
2017-Oct-16 15:01N 37°49' W 122°21'917.8
2017-Oct-16 14:31N 37°40' W 122°23'1615.8
2017-Oct-16 13:31N 37°55' W 122°28'1325.3
2017-Oct-16 12:59N 38°04' W 122°16'5 7.0
2017-Oct-16 12:17N 38°02' W 122°09'621.6
2017-Oct-16 12:00N 38°03' W 122°17'1121.3
2017-Oct-16 11:31N 37°54' W 122°25'612.6
2017-Oct-16 11:00N 37°50' W 122°19'  
2017-Oct-14 02:33N 37°50' W 122°19'0 0.0
2017-Oct-14 02:30N 37°50' W 122°19'2 3.4
2017-Oct-14 02:01N 37°52' W 122°19'1224.8
2017-Oct-14 01:31N 37°40' W 122°22'3 6.9
2017-Oct-14 01:01N 37°43' W 122°21'1529.7
2017-Oct-14 00:30N 37°58' W 122°26'1326.2
2017-Oct-14 00:01N 38°03' W 122°11'2 4.6
2017-Oct-13 23:30N 38°04' W 122°14'1326.2
2017-Oct-13 23:00N 37°56' W 122°27'917.9
2017-Oct-13 22:31N 37°47' W 122°23'815.2
2017-Oct-13 22:00N 37°40' W 122°23'714.3
2017-Oct-13 21:31N 37°47' W 122°22'4 8.2
2017-Oct-13 21:00N 37°50' W 122°19'0 0.0
2017-Oct-13 20:30N 37°50' W 122°19'0 0.0
2017-Oct-13 20:01N 37°50' W 122°19'0 0.0
2017-Oct-13 18:04N 37°50' W 122°19'0 0.1
2017-Oct-13 18:00N 37°50' W 122°19'0 0.0
2017-Oct-13 17:30N 37°50' W 122°19'0 0.0
2017-Oct-13 17:00N 37°50' W 122°19'0 0.4
2017-Oct-13 16:30N 37°51' W 122°19'1122.1
2017-Oct-13 16:00N 37°40' W 122°22'816.4
2017-Oct-13 15:31N 37°48' W 122°21'3 6.3
2017-Oct-13 15:01N 37°51' W 122°21'1122.7
2017-Oct-13 14:30N 37°40' W 122°23'1019.6
2017-Oct-13 14:01N 37°50' W 122°23'713.6
2017-Oct-13 13:30N 37°55' W 122°28'1325.1
2017-Oct-13 13:00N 38°04' W 122°15'5 6.5
2017-Oct-13 12:16N 38°02' W 122°10'624.4
2017-Oct-13 12:00N 38°03' W 122°18'1121.8
2017-Oct-13 11:30N 37°53' W 122°24'5 9.5
2017-Oct-13 11:00N 37°50' W 122°19'0 0.0
2017-Oct-13 02:31N 37°50' W 122°19'0 0.0
2017-Oct-13 02:30N 37°50' W 122°19'2 3.3
2017-Oct-13 02:01N 37°52' W 122°19'1224.2
2017-Oct-13 01:31N 37°40' W 122°22'0 0.9
2017-Oct-13 01:01N 37°41' W 122°22'1428.1
2017-Oct-13 00:30N 37°54' W 122°25'1223.1
2017-Oct-13 00:00N 38°04' W 122°16'1 2.1
2017-Oct-12 23:30N 38°04' W 122°14'1326.3
2017-Oct-12 23:00N 37°56' W 122°27'1019.2
2017-Oct-12 22:30N 37°47' W 122°23'714.0
2017-Oct-12 22:00N 37°40' W 122°23'1 2.2
2017-Oct-12 21:31N 37°41' W 122°22'1020.5
2017-Oct-12 21:00N 37°51' W 122°19'0 0.5
2017-Oct-12 20:30N 37°50' W 122°19'0 0.0
2017-Oct-12 18:18N 37°50' W 122°19'0 0.0
2017-Oct-12 18:00N 37°50' W 122°19'0 0.0
2017-Oct-12 17:30N 37°50' W 122°19'0 0.0
2017-Oct-12 17:00N 37°50' W 122°19'1 2.3
2017-Oct-12 16:31N 37°50' W 122°20'1020.6
2017-Oct-12 16:01N 37°40' W 122°23'917.8
2017-Oct-12 15:31N 37°49' W 122°21'2 4.7
2017-Oct-12 15:01N 37°51' W 122°21'1122.6
2017-Oct-12 14:30N 37°40' W 122°23'1019.3
2017-Oct-12 14:01N 37°49' W 122°23'815.1
2017-Oct-12 13:30N 37°56' W 122°27'1223.2
2017-Oct-12 13:00N 38°04' W 122°15'5 7.6
2017-Oct-12 12:24N 38°03' W 122°09'821.1
2017-Oct-12 12:00N 38°02' W 122°20'1020.4
2017-Oct-12 11:31N 37°52' W 122°23'4 7.1
2017-Oct-12 11:00N 37°50' W 122°19'0 0.0
2017-Oct-12 02:30N 37°50' W 122°19'2 3.5
2017-Oct-12 02:01N 37°52' W 122°19'1223.7
2017-Oct-12 01:31N 37°40' W 122°22'1 1.2
2017-Oct-12 01:01N 37°40' W 122°22'1326.8
2017-Oct-12 00:31N 37°53' W 122°24'1122.5
2017-Oct-12 00:01N 38°03' W 122°17'3 5.4
2017-Oct-11 23:31N 38°04' W 122°14'1326.3
2017-Oct-11 23:00N 37°56' W 122°27'1019.2
2017-Oct-11 22:31N 37°47' W 122°23'5 2.3
2017-Oct-11 20:31N 37°50' W 122°19'0 0.0
2017-Oct-11 20:30N 37°50' W 122°19'0 0.0
2017-Oct-11 20:01N 37°50' W 122°19'0 0.0
2017-Oct-11 19:31N 37°50' W 122°19'0 0.0
2017-Oct-11 19:01N 37°50' W 122°19'0 0.1
2017-Oct-11 18:30N 37°50' W 122°19'0 0.1
2017-Oct-11 18:01N 37°50' W 122°19'0 0.0
2017-Oct-11 17:31N 37°50' W 122°19'0 0.0
2017-Oct-11 17:00N 37°50' W 122°19'14 0.8
2017-Oct-11 00:01N 38°04' W 122°14'1 1.4
2017-Oct-10 23:30N 38°04' W 122°15'1326.4
2017-Oct-10 23:00N 37°55' W 122°28'1019.3
2017-Oct-10 22:31N 37°47' W 122°23'713.7
2017-Oct-10 22:00N 37°40' W 122°23'3 5.9
2017-Oct-10 21:31N 37°43' W 122°21'816.1
2017-Oct-10 21:00N 37°50' W 122°19'0 0.2
2017-Oct-10 20:30N 37°50' W 122°19'0 0.0
2017-Oct-10 20:01N 37°50' W 122°19'0 0.0
2017-Oct-10 18:12N 37°50' W 122°19'0 0.0
2017-Oct-10 18:00N 37°50' W 122°19'0 0.1
2017-Oct-10 17:30N 37°50' W 122°19'0 0.1
2017-Oct-10 17:00N 37°50' W 122°19'1 2.2
2017-Oct-10 16:30N 37°50' W 122°20'1121.0
2017-Oct-10 16:00N 37°40' W 122°23'918.4
2017-Oct-10 15:30N 37°49' W 122°21'1 1.7
2017-Oct-10 15:01N 37°50' W 122°22'2 1.6
2017-Oct-10 14:01N 37°50' W 122°24'815.0
2017-Oct-10 13:30N 37°57' W 122°27'1224.4
2017-Oct-10 13:01N 38°04' W 122°14'2 3.8
2017-Oct-10 12:30N 38°03' W 122°11'1122.4
2017-Oct-10 12:00N 37°60' W 122°25'1019.2
2017-Oct-10 11:31N 37°51' W 122°20'1 2.1
2017-Oct-10 11:00N 37°50' W 122°19'0 0.0
2017-Oct-10 02:25N 37°51' W 122°19'1 3.6
2017-Oct-10 02:01N 37°52' W 122°19'1224.6
2017-Oct-10 01:31N 37°40' W 122°22'3 7.0
2017-Oct-10 01:01N 37°43' W 122°21'1325.3
2017-Oct-10 00:30N 37°56' W 122°25'1223.3
2017-Oct-10 00:00N 38°04' W 122°14'1 2.4
2017-Oct-09 23:30N 38°03' W 122°16'1325.9
2017-Oct-09 23:00N 37°55' W 122°28'1019.7
2017-Oct-09 22:31N 37°46' W 122°22'713.2
2017-Oct-09 22:01N 37°40' W 122°23'0 0.0
2017-Oct-09 21:30N 37°40' W 122°23'611.2
2017-Oct-09 21:00N 37°45' W 122°21'510.9
2017-Oct-09 20:30N 37°50' W 122°19'0 0.0
2017-Oct-09 20:00N 37°50' W 122°19'0 0.0
2017-Oct-09 17:52N 37°50' W 122°19'0 0.0
2017-Oct-09 17:30N 37°50' W 122°19'0 0.0
2017-Oct-09 17:00N 37°50' W 122°19'0 0.3
2017-Oct-09 16:31N 37°50' W 122°19'1122.1
2017-Oct-09 16:00N 37°40' W 122°23'816.6
2017-Oct-09 15:31N 37°48' W 122°22'3 6.6
2017-Oct-09 15:01N 37°51' W 122°21'1223.1
2017-Oct-09 14:30N 37°40' W 122°23'918.3
2017-Oct-09 14:01N 37°49' W 122°23'916.7
2017-Oct-09 13:29N 37°57' W 122°27'1225.6
2017-Oct-09 13:00N 38°04' W 122°13'4 6.8
2017-Oct-09 12:27N 38°03' W 122°18'1022.5
2017-Oct-09 12:01N 37°54' W 122°25'612.7
2017-Oct-09 11:31N 37°50' W 122°19'0 0.0
2017-Oct-09 11:01N 37°50' W 122°19'  
Track history (hours):
 
Tides and Currents Weather Stations Pressure Air Temp Water Temp Dewpoint Dewpoint Depression Visibility Wind Speed Wind Dir Waves Ship Positions

Blackbird

Owner: PropSF, LLC, Alameda, CA. More information available from US FCC via Universal Licensing System and Coast Guard Vessel Documentation Center.

Last reported at 2017-Oct-18 23:30 UTC. Time now 2017-Oct-18 23:47 UTC.
Position N 38°04' W 122°13'.

Length 17 m; draft 1 m.

Type: Passenger vessel. MMSI: 367776390.

Date/timePositionNaut miles runAvg speedWind from/ knotsBaromVisibWave heightAir tempDewpointWater temp
2017-Oct-18 23:30N 38°04' W 122°13'1325.9
2017-Oct-18 23:01N 37°56' W 122°27'1019.1
2017-Oct-18 22:31N 37°47' W 122°23'714.4
2017-Oct-18 22:01N 37°40' W 122°23'1020.3
2017-Oct-18 21:31N 37°50' W 122°20'1 2.9
2017-Oct-18 21:00N 37°50' W 122°19'0 0.0
2017-Oct-18 20:30N 37°50' W 122°19'0 0.0
2017-Oct-18 17:46N 37°50' W 122°19'0 0.0
2017-Oct-18 17:30N 37°50' W 122°19'0 0.0
2017-Oct-18 17:00N 37°50' W 122°19'0 0.4
2017-Oct-18 16:31N 37°51' W 122°19'1122.0
2017-Oct-18 16:00N 37°40' W 122°22'816.6
2017-Oct-18 15:31N 37°48' W 122°21'3 6.1
2017-Oct-18 15:01N 37°51' W 122°21'3 2.8
2017-Oct-18 14:01N 37°49' W 122°23'815.8
2017-Oct-18 13:30N 37°55' W 122°28'1224.2
2017-Oct-18 13:01N 38°03' W 122°17'612.3
2017-Oct-18 12:31N 38°03' W 122°09'1121.0
2017-Oct-18 12:00N 38°01' W 122°23'1020.3
2017-Oct-18 11:31N 37°51' W 122°22'2 4.8
2017-Oct-18 11:00N 37°50' W 122°19'0 0.0
2017-Oct-18 02:33N 37°50' W 122°19'0 0.0
2017-Oct-18 02:30N 37°50' W 122°19'2 3.4
2017-Oct-18 02:01N 37°52' W 122°19'1223.7
2017-Oct-18 01:31N 37°40' W 122°22'1 1.5
2017-Oct-18 01:01N 37°40' W 122°22'1326.1
2017-Oct-18 00:31N 37°53' W 122°24'1223.7
2017-Oct-18 00:01N 38°03' W 122°17'2 4.1
2017-Oct-17 23:30N 38°04' W 122°14'1325.7
2017-Oct-17 23:01N 37°56' W 122°27'1019.4
2017-Oct-17 22:31N 37°47' W 122°23'713.9
2017-Oct-17 22:01N 37°40' W 122°23'713.6
2017-Oct-17 21:31N 37°47' W 122°21'4 1.1
2017-Oct-17 17:42N 37°50' W 122°19'0 0.0
2017-Oct-17 17:30N 37°50' W 122°19'0 0.0
2017-Oct-17 17:00N 37°50' W 122°19'1 2.5
2017-Oct-17 16:31N 37°50' W 122°20'1020.4
2017-Oct-17 16:00N 37°40' W 122°23'918.3
2017-Oct-17 15:31N 37°49' W 122°21'2 4.5
2017-Oct-17 15:01N 37°51' W 122°21'1122.6
2017-Oct-17 14:30N 37°40' W 122°23'917.8
2017-Oct-17 14:01N 37°49' W 122°23'815.5
2017-Oct-17 13:31N 37°55' W 122°28'1325.8
2017-Oct-17 13:00N 38°03' W 122°16'5 9.9
2017-Oct-17 12:30N 38°02' W 122°10'1121.6
2017-Oct-17 12:01N 38°01' W 122°23'1020.2
2017-Oct-17 11:31N 37°51' W 122°21'2 0.2
2017-Oct-17 02:39N 37°50' W 122°19'0 0.0
2017-Oct-17 02:30N 37°50' W 122°19'2 3.4
2017-Oct-17 02:01N 37°52' W 122°19'1223.7
2017-Oct-17 01:31N 37°40' W 122°22'1 1.8
2017-Oct-17 01:00N 37°41' W 122°21'1427.8
2017-Oct-17 00:31N 37°55' W 122°25'1325.8
2017-Oct-17 00:00N 38°04' W 122°13'2 4.5
2017-Oct-16 23:29N 38°03' W 122°16'1226.0
2017-Oct-16 23:01N 37°55' W 122°28'1019.1
2017-Oct-16 22:30N 37°47' W 122°23'713.5
2017-Oct-16 22:00N 37°40' W 122°23'713.8
2017-Oct-16 21:31N 37°47' W 122°21'4 8.5
2017-Oct-16 21:00N 37°50' W 122°19'0 0.0
2017-Oct-16 20:30N 37°50' W 122°19'0 0.0
2017-Oct-16 18:22N 37°50' W 122°19'0 0.0
2017-Oct-16 18:00N 37°50' W 122°19'0 0.0
2017-Oct-16 17:31N 37°50' W 122°19'0 0.0
2017-Oct-16 17:00N 37°50' W 122°19'3 6.3
2017-Oct-16 16:31N 37°48' W 122°22'816.8
2017-Oct-16 16:00N 37°40' W 122°23'1020.0
2017-Oct-16 15:31N 37°50' W 122°22'1 2.1
2017-Oct-16 15:01N 37°49' W 122°21'917.8
2017-Oct-16 14:31N 37°40' W 122°23'1615.8
2017-Oct-16 13:31N 37°55' W 122°28'1325.3
2017-Oct-16 12:59N 38°04' W 122°16'5 7.0
2017-Oct-16 12:17N 38°02' W 122°09'621.6
2017-Oct-16 12:00N 38°03' W 122°17'1121.3
2017-Oct-16 11:31N 37°54' W 122°25'612.6
2017-Oct-16 11:00N 37°50' W 122°19'  
2017-Oct-14 02:33N 37°50' W 122°19'0 0.0
2017-Oct-14 02:30N 37°50' W 122°19'2 3.4
2017-Oct-14 02:01N 37°52' W 122°19'1224.8
2017-Oct-14 01:31N 37°40' W 122°22'3 6.9
2017-Oct-14 01:01N 37°43' W 122°21'1529.7
2017-Oct-14 00:30N 37°58' W 122°26'1326.2
2017-Oct-14 00:01N 38°03' W 122°11'2 4.6
2017-Oct-13 23:30N 38°04' W 122°14'1326.2
2017-Oct-13 23:00N 37°56' W 122°27'917.9
2017-Oct-13 22:31N 37°47' W 122°23'815.2
2017-Oct-13 22:00N 37°40' W 122°23'714.3
2017-Oct-13 21:31N 37°47' W 122°22'4 8.2
2017-Oct-13 21:00N 37°50' W 122°19'0 0.0
2017-Oct-13 20:30N 37°50' W 122°19'0 0.0
2017-Oct-13 20:01N 37°50' W 122°19'0 0.0
2017-Oct-13 18:04N 37°50' W 122°19'0 0.1
2017-Oct-13 18:00N 37°50' W 122°19'0 0.0
2017-Oct-13 17:30N 37°50' W 122°19'0 0.0
2017-Oct-13 17:00N 37°50' W 122°19'0 0.4
2017-Oct-13 16:30N 37°51' W 122°19'1122.1
2017-Oct-13 16:00N 37°40' W 122°22'816.4
2017-Oct-13 15:31N 37°48' W 122°21'3 6.3
2017-Oct-13 15:01N 37°51' W 122°21'1122.7
2017-Oct-13 14:30N 37°40' W 122°23'1019.6
2017-Oct-13 14:01N 37°50' W 122°23'713.6
2017-Oct-13 13:30N 37°55' W 122°28'1325.1
2017-Oct-13 13:00N 38°04' W 122°15'5 6.5
2017-Oct-13 12:16N 38°02' W 122°10'624.4
2017-Oct-13 12:00N 38°03' W 122°18'1121.8
2017-Oct-13 11:30N 37°53' W 122°24'5 9.5
2017-Oct-13 11:00N 37°50' W 122°19'0 0.0
2017-Oct-13 02:31N 37°50' W 122°19'0 0.0
2017-Oct-13 02:30N 37°50' W 122°19'2 3.3
2017-Oct-13 02:01N 37°52' W 122°19'1224.2
2017-Oct-13 01:31N 37°40' W 122°22'0 0.9
2017-Oct-13 01:01N 37°41' W 122°22'1428.1
2017-Oct-13 00:30N 37°54' W 122°25'1223.1
2017-Oct-13 00:00N 38°04' W 122°16'1 2.1
2017-Oct-12 23:30N 38°04' W 122°14'1326.3
2017-Oct-12 23:00N 37°56' W 122°27'1019.2
2017-Oct-12 22:30N 37°47' W 122°23'714.0
2017-Oct-12 22:00N 37°40' W 122°23'1 2.2
2017-Oct-12 21:31N 37°41' W 122°22'1020.5
2017-Oct-12 21:00N 37°51' W 122°19'0 0.5
2017-Oct-12 20:30N 37°50' W 122°19'0 0.0
2017-Oct-12 18:18N 37°50' W 122°19'0 0.0
2017-Oct-12 18:00N 37°50' W 122°19'0 0.0
2017-Oct-12 17:30N 37°50' W 122°19'0 0.0
2017-Oct-12 17:00N 37°50' W 122°19'1 2.3
2017-Oct-12 16:31N 37°50' W 122°20'1020.6
2017-Oct-12 16:01N 37°40' W 122°23'917.8
2017-Oct-12 15:31N 37°49' W 122°21'2 4.7
2017-Oct-12 15:01N 37°51' W 122°21'1122.6
2017-Oct-12 14:30N 37°40' W 122°23'1019.3
2017-Oct-12 14:01N 37°49' W 122°23'815.1
2017-Oct-12 13:30N 37°56' W 122°27'1223.2
2017-Oct-12 13:00N 38°04' W 122°15'5 7.6
2017-Oct-12 12:24N 38°03' W 122°09'821.1
2017-Oct-12 12:00N 38°02' W 122°20'1020.4
2017-Oct-12 11:31N 37°52' W 122°23'4 7.1
2017-Oct-12 11:00N 37°50' W 122°19'0 0.0
2017-Oct-12 02:30N 37°50' W 122°19'2 3.5
2017-Oct-12 02:01N 37°52' W 122°19'1223.7
2017-Oct-12 01:31N 37°40' W 122°22'1 1.2
2017-Oct-12 01:01N 37°40' W 122°22'1326.8
2017-Oct-12 00:31N 37°53' W 122°24'1122.5
2017-Oct-12 00:01N 38°03' W 122°17'3 5.4
2017-Oct-11 23:31N 38°04' W 122°14'1326.3
2017-Oct-11 23:00N 37°56' W 122°27'1019.2
2017-Oct-11 22:31N 37°47' W 122°23'5 2.3
2017-Oct-11 20:31N 37°50' W 122°19'0 0.0
2017-Oct-11 20:30N 37°50' W 122°19'0 0.0
2017-Oct-11 20:01N 37°50' W 122°19'0 0.0
2017-Oct-11 19:31N 37°50' W 122°19'0 0.0
2017-Oct-11 19:01N 37°50' W 122°19'0 0.1
2017-Oct-11 18:30N 37°50' W 122°19'0 0.1
2017-Oct-11 18:01N 37°50' W 122°19'0 0.0
2017-Oct-11 17:31N 37°50' W 122°19'0 0.0
2017-Oct-11 17:00N 37°50' W 122°19'14 0.8
2017-Oct-11 00:01N 38°04' W 122°14'1 1.4
2017-Oct-10 23:30N 38°04' W 122°15'1326.4
2017-Oct-10 23:00N 37°55' W 122°28'1019.3
2017-Oct-10 22:31N 37°47' W 122°23'713.7
2017-Oct-10 22:00N 37°40' W 122°23'3 5.9
2017-Oct-10 21:31N 37°43' W 122°21'816.1
2017-Oct-10 21:00N 37°50' W 122°19'0 0.2
2017-Oct-10 20:30N 37°50' W 122°19'0 0.0
2017-Oct-10 20:01N 37°50' W 122°19'0 0.0
2017-Oct-10 18:12N 37°50' W 122°19'0 0.0
2017-Oct-10 18:00N 37°50' W 122°19'0 0.1
2017-Oct-10 17:30N 37°50' W 122°19'0 0.1
2017-Oct-10 17:00N 37°50' W 122°19'1 2.2
2017-Oct-10 16:30N 37°50' W 122°20'1121.0
2017-Oct-10 16:00N 37°40' W 122°23'918.4
2017-Oct-10 15:30N 37°49' W 122°21'1 1.7
2017-Oct-10 15:01N 37°50' W 122°22'2 1.6
2017-Oct-10 14:01N 37°50' W 122°24'815.0
2017-Oct-10 13:30N 37°57' W 122°27'1224.4
2017-Oct-10 13:01N 38°04' W 122°14'2 3.8
2017-Oct-10 12:30N 38°03' W 122°11'1122.4
2017-Oct-10 12:00N 37°60' W 122°25'1019.2
2017-Oct-10 11:31N 37°51' W 122°20'1 2.1
2017-Oct-10 11:00N 37°50' W 122°19'0 0.0
2017-Oct-10 02:25N 37°51' W 122°19'1 3.6
2017-Oct-10 02:01N 37°52' W 122°19'1224.6
2017-Oct-10 01:31N 37°40' W 122°22'3 7.0
2017-Oct-10 01:01N 37°43' W 122°21'1325.3
2017-Oct-10 00:30N 37°56' W 122°25'1223.3
2017-Oct-10 00:00N 38°04' W 122°14'1 2.4
2017-Oct-09 23:30N 38°03' W 122°16'1325.9
2017-Oct-09 23:00N 37°55' W 122°28'1019.7
2017-Oct-09 22:31N 37°46' W 122°22'713.2
2017-Oct-09 22:01N 37°40' W 122°23'0 0.0
2017-Oct-09 21:30N 37°40' W 122°23'611.2
2017-Oct-09 21:00N 37°45' W 122°21'510.9
2017-Oct-09 20:30N 37°50' W 122°19'0 0.0
2017-Oct-09 20:00N 37°50' W 122°19'0 0.0
2017-Oct-09 17:52N 37°50' W 122°19'0 0.0
2017-Oct-09 17:30N 37°50' W 122°19'0 0.0
2017-Oct-09 17:00N 37°50' W 122°19'0 0.3
2017-Oct-09 16:31N 37°50' W 122°19'1122.1
2017-Oct-09 16:00N 37°40' W 122°23'816.6
2017-Oct-09 15:31N 37°48' W 122°22'3 6.6
2017-Oct-09 15:01N 37°51' W 122°21'1223.1
2017-Oct-09 14:30N 37°40' W 122°23'918.3
2017-Oct-09 14:01N 37°49' W 122°23'916.7
2017-Oct-09 13:29N 37°57' W 122°27'1225.6
2017-Oct-09 13:00N 38°04' W 122°13'4 6.8
2017-Oct-09 12:27N 38°03' W 122°18'1022.5
2017-Oct-09 12:01N 37°54' W 122°25'612.7
2017-Oct-09 11:31N 37°50' W 122°19'0 0.0
2017-Oct-09 11:01N 37°50' W 122°19'  

Dump ship's entire track history